sensor_id;sensor_type;location;lat;lon;timestamp;pressure;altitude;pressure_sealevel;temperature;humidity
71043;BME280;58696;52.134;5.500;2023-03-03T00:02:08;102691.28;;;0.73;94.62
71043;BME280;58696;52.134;5.500;2023-03-03T00:04:34;102699.69;;;0.74;94.54
71043;BME280;58696;52.134;5.500;2023-03-03T00:07:01;102700.50;;;0.74;94.50
71043;BME280;58696;52.134;5.500;2023-03-03T00:09:30;102701.19;;;0.78;94.91
71043;BME280;58696;52.134;5.500;2023-03-03T00:11:59;102704.41;;;0.82;94.54
71043;BME280;58696;52.134;5.500;2023-03-03T00:14:31;102696.81;;;0.82;94.54
71043;BME280;58696;52.134;5.500;2023-03-03T00:17:00;102694.94;;;0.85;94.48
71043;BME280;58696;52.134;5.500;2023-03-03T00:19:39;102691.38;;;0.89;94.35
71043;BME280;58696;52.134;5.500;2023-03-03T00:22:17;102701.50;;;0.89;94.34
71043;BME280;58696;52.134;5.500;2023-03-03T00:24:51;102697.25;;;0.90;94.14
71043;BME280;58696;52.134;5.500;2023-03-03T00:27:28;102706.66;;;0.88;94.17
71043;BME280;58696;52.134;5.500;2023-03-03T00:30:00;102704.13;;;0.88;94.08
71043;BME280;58696;52.134;5.500;2023-03-03T00:32:44;102709.19;;;0.88;93.94
71043;BME280;58696;52.134;5.500;2023-03-03T00:35:32;102706.78;;;0.85;93.98
71043;BME280;58696;52.134;5.500;2023-03-03T00:38:10;102711.91;;;0.83;93.88
71043;BME280;58696;52.134;5.500;2023-03-03T00:40:40;102724.66;;;0.82;93.79
71043;BME280;58696;52.134;5.500;2023-03-03T00:45:52;102710.22;;;0.84;93.87
71043;BME280;58696;52.134;5.500;2023-03-03T00:50:57;102704.63;;;0.77;93.78
71043;BME280;58696;52.134;5.500;2023-03-03T00:53:27;102715.69;;;0.74;93.75
71043;BME280;58696;52.134;5.500;2023-03-03T00:55:54;102721.66;;;0.73;93.71
71043;BME280;58696;52.134;5.500;2023-03-03T00:58:22;102717.47;;;0.72;93.90
71043;BME280;58696;52.134;5.500;2023-03-03T01:00:53;102717.56;;;0.71;93.60
71043;BME280;58696;52.134;5.500;2023-03-03T01:03:25;102725.28;;;0.68;93.63
71043;BME280;58696;52.134;5.500;2023-03-03T01:05:52;102725.28;;;0.68;93.66
71043;BME280;58696;52.134;5.500;2023-03-03T01:08:24;102723.66;;;0.67;93.78
71043;BME280;58696;52.134;5.500;2023-03-03T01:10:56;102721.19;;;0.65;93.84
71043;BME280;58696;52.134;5.500;2023-03-03T01:13:29;102719.41;;;0.67;93.89
71043;BME280;58696;52.134;5.500;2023-03-03T01:15:57;102722.75;;;0.68;93.94
71043;BME280;58696;52.134;5.500;2023-03-03T01:18:25;102718.66;;;0.65;94.10
71043;BME280;58696;52.134;5.500;2023-03-03T01:20:56;102725.41;;;0.65;94.25
71043;BME280;58696;52.134;5.500;2023-03-03T01:23:23;102726.38;;;0.62;94.38
71043;BME280;58696;52.134;5.500;2023-03-03T01:25:50;102725.50;;;0.63;94.26
71043;BME280;58696;52.134;5.500;2023-03-03T01:28:16;102717.91;;;0.63;94.25
71043;BME280;58696;52.134;5.500;2023-03-03T01:30:47;102722.84;;;0.66;94.21
71043;BME280;58696;52.134;5.500;2023-03-03T01:33:17;102717.81;;;0.65;94.25
71043;BME280;58696;52.134;5.500;2023-03-03T01:35:45;102718.59;;;0.67;94.30
71043;BME280;58696;52.134;5.500;2023-03-03T01:38:13;102720.22;;;0.68;94.23
71043;BME280;58696;52.134;5.500;2023-03-03T01:40:54;102719.41;;;0.67;94.13
71043;BME280;58696;52.134;5.500;2023-03-03T01:43:25;102714.34;;;0.67;94.35
71043;BME280;58696;52.134;5.500;2023-03-03T01:48:38;102729.38;;;0.70;94.16
71043;BME280;58696;52.134;5.500;2023-03-03T01:51:17;102715.84;;;0.71;93.99
71043;BME280;58696;52.134;5.500;2023-03-03T01:53:52;102720.75;;;0.74;94.09
71043;BME280;58696;52.134;5.500;2023-03-03T01:56:20;102721.66;;;0.73;93.82
71043;BME280;58696;52.134;5.500;2023-03-03T01:59:11;102723.50;;;0.70;93.76
71043;BME280;58696;52.134;5.500;2023-03-03T02:01:41;102723.34;;;0.73;93.64
71043;BME280;58696;52.134;5.500;2023-03-03T02:04:08;102731.25;;;0.67;93.43
71043;BME280;58696;52.134;5.500;2023-03-03T02:06:41;102722.97;;;0.63;93.55
71043;BME280;58696;52.134;5.500;2023-03-03T02:09:23;102725.41;;;0.65;93.68
71043;BME280;58696;52.134;5.500;2023-03-03T02:11:58;102725.41;;;0.65;93.45
71043;BME280;58696;52.134;5.500;2023-03-03T02:14:26;102724.53;;;0.66;93.51
71043;BME280;58696;52.134;5.500;2023-03-03T02:16:54;102724.47;;;0.67;93.48
71043;BME280;58696;52.134;5.500;2023-03-03T02:21:54;102731.25;;;0.67;93.48
71043;BME280;58696;52.134;5.500;2023-03-03T02:24:23;102725.41;;;0.65;93.85
71043;BME280;58696;52.134;5.500;2023-03-03T02:26:51;102724.53;;;0.66;93.61
71043;BME280;58696;52.134;5.500;2023-03-03T02:29:18;102729.44;;;0.69;93.47
71043;BME280;58696;52.134;5.500;2023-03-03T02:31:45;102725.28;;;0.68;93.52
71043;BME280;58696;52.134;5.500;2023-03-03T02:34:14;102724.53;;;0.66;93.62
71043;BME280;58696;52.134;5.500;2023-03-03T02:36:43;102727.06;;;0.66;93.60
71043;BME280;58696;52.134;5.500;2023-03-03T02:39:22;102727.13;;;0.64;93.62
71043;BME280;58696;52.134;5.500;2023-03-03T02:41:57;102717.81;;;0.65;93.36
71043;BME280;58696;52.134;5.500;2023-03-03T02:44:27;102716.25;;;0.62;93.56
71043;BME280;58696;52.134;5.500;2023-03-03T02:47:00;102718.66;;;0.65;93.32
71043;BME280;58696;52.134;5.500;2023-03-03T02:49:31;102719.41;;;0.67;93.33
71043;BME280;58696;52.134;5.500;2023-03-03T02:51:59;102722.97;;;0.63;93.09
71043;BME280;58696;52.134;5.500;2023-03-03T02:54:27;102731.56;;;0.59;93.10
71043;BME280;58696;52.134;5.500;2023-03-03T02:56:59;102730.97;;;0.54;92.95
71043;BME280;58696;52.134;5.500;2023-03-03T02:59:28;102728.66;;;0.49;93.18
71043;BME280;58696;52.134;5.500;2023-03-03T03:01:55;102722.84;;;0.47;93.17
71043;BME280;58696;52.134;5.500;2023-03-03T03:04:24;102728.91;;;0.43;93.16
71043;BME280;58696;52.134;5.500;2023-03-03T03:06:51;102733.09;;;0.44;93.22
71043;BME280;58696;52.134;5.500;2023-03-03T03:09:20;102729.00;;;0.42;93.27
71043;BME280;58696;52.134;5.500;2023-03-03T03:11:52;102724.94;;;0.38;93.35
71043;BME280;58696;52.134;5.500;2023-03-03T03:14:19;102731.69;;;0.39;93.53
71043;BME280;58696;52.134;5.500;2023-03-03T03:16:45;102728.19;;;0.41;93.58
71043;BME280;58696;52.134;5.500;2023-03-03T03:19:13;102716.28;;;0.43;93.43
71043;BME280;58696;52.134;5.500;2023-03-03T03:21:40;102727.44;;;0.39;93.48
71043;BME280;58696;52.134;5.500;2023-03-03T03:24:06;102723.41;;;0.35;93.51
71043;BME280;58696;52.134;5.500;2023-03-03T03:26:36;102727.63;;;0.35;93.67
71043;BME280;58696;52.134;5.500;2023-03-03T03:29:02;102722.50;;;0.36;93.58
71043;BME280;58696;52.134;5.500;2023-03-03T03:31:33;102724.09;;;0.39;93.56
71043;BME280;58696;52.134;5.500;2023-03-03T03:34:00;102730.78;;;0.40;93.55
71043;BME280;58696;52.134;5.500;2023-03-03T03:36:26;102728.19;;;0.41;93.55
71043;BME280;58696;52.134;5.500;2023-03-03T03:38:53;102723.59;;;0.49;93.65
71043;BME280;58696;52.134;5.500;2023-03-03T03:41:20;102731.84;;;0.53;93.51
71043;BME280;58696;52.134;5.500;2023-03-03T03:43:47;102731.84;;;0.53;93.36
71043;BME280;58696;52.134;5.500;2023-03-03T03:46:14;102725.03;;;0.55;93.35
71043;BME280;58696;52.134;5.500;2023-03-03T03:48:46;102738.69;;;0.51;93.28
71043;BME280;58696;52.134;5.500;2023-03-03T03:51:12;102735.44;;;0.49;93.52
71043;BME280;58696;52.134;5.500;2023-03-03T03:53:43;102741.16;;;0.52;93.56
71043;BME280;58696;52.134;5.500;2023-03-03T03:56:10;102741.78;;;0.58;93.48
71043;BME280;58696;52.134;5.500;2023-03-03T03:58:40;102739.25;;;0.58;93.49
71043;BME280;58696;52.134;5.500;2023-03-03T04:01:07;102746.69;;;0.61;93.57
71043;BME280;58696;52.134;5.500;2023-03-03T04:03:34;102750.25;;;0.57;93.60
71043;BME280;58696;52.134;5.500;2023-03-03T04:06:03;102747.19;;;0.50;93.62
71043;BME280;58696;52.134;5.500;2023-03-03T04:08:32;102746.28;;;0.51;93.62
71043;BME280;58696;52.134;5.500;2023-03-03T04:10:58;102742.88;;;0.52;93.85
71043;BME280;58696;52.134;5.500;2023-03-03T04:13:27;102752.16;;;0.51;93.92
71043;BME280;58696;52.134;5.500;2023-03-03T04:15:57;102746.22;;;0.52;93.91
71043;BME280;58696;52.134;5.500;2023-03-03T04:18:23;102742.75;;;0.55;93.89
71043;BME280;58696;52.134;5.500;2023-03-03T04:20:50;102750.25;;;0.57;94.01
71043;BME280;58696;52.134;5.500;2023-03-03T04:23:18;102745.28;;;0.55;93.95
71043;BME280;58696;52.134;5.500;2023-03-03T04:25:47;102745.41;;;0.52;94.22
71043;BME280;58696;52.134;5.500;2023-03-03T04:28:16;102740.34;;;0.52;94.23
71043;BME280;58696;52.134;5.500;2023-03-03T04:30:45;102736.03;;;0.54;94.22
71043;BME280;58696;52.134;5.500;2023-03-03T04:33:14;102742.88;;;0.52;94.19
71043;BME280;58696;52.134;5.500;2023-03-03T04:35:42;102753.81;;;0.52;94.23
71043;BME280;58696;52.134;5.500;2023-03-03T04:38:11;102738.63;;;0.52;94.30
71043;BME280;58696;52.134;5.500;2023-03-03T04:40:40;102744.50;;;0.53;94.33
71043;BME280;58696;52.134;5.500;2023-03-03T04:43:07;102749.50;;;0.55;94.21
71043;BME280;58696;52.134;5.500;2023-03-03T04:45:34;102742.75;;;0.55;94.54
71043;BME280;58696;52.134;5.500;2023-03-03T04:48:01;102748.53;;;0.57;94.54
71043;BME280;58696;52.134;5.500;2023-03-03T04:50:30;102753.47;;;0.60;94.39
71043;BME280;58696;52.134;5.500;2023-03-03T04:52:57;102749.22;;;0.61;94.50
71043;BME280;58696;52.134;5.500;2023-03-03T04:55:24;102749.06;;;0.64;94.50
71043;BME280;58696;52.134;5.500;2023-03-03T04:57:55;102747.38;;;0.64;94.63
71043;BME280;58696;52.134;5.500;2023-03-03T05:00:24;102749.16;;;0.62;94.51
71043;BME280;58696;52.134;5.500;2023-03-03T05:02:51;102749.97;;;0.63;94.68
71043;BME280;58696;52.134;5.500;2023-03-03T05:05:18;102745.72;;;0.63;94.71
71043;BME280;58696;52.134;5.500;2023-03-03T05:07:46;102750.66;;;0.66;94.74
71043;BME280;58696;52.134;5.500;2023-03-03T05:10:15;102739.78;;;0.64;94.86
71043;BME280;58696;52.134;5.500;2023-03-03T05:12:45;102744.00;;;0.64;94.87
71043;BME280;58696;52.134;5.500;2023-03-03T05:15:14;102745.53;;;0.68;95.09
71043;BME280;58696;52.134;5.500;2023-03-03T05:17:43;102744.41;;;0.73;95.03
71043;BME280;58696;52.134;5.500;2023-03-03T05:20:13;102745.31;;;0.72;94.96
71043;BME280;58696;52.134;5.500;2023-03-03T05:22:40;102734.28;;;0.73;95.09
71043;BME280;58696;52.134;5.500;2023-03-03T05:25:11;102745.31;;;0.72;95.05
71043;BME280;58696;52.134;5.500;2023-03-03T05:27:40;102738.53;;;0.73;94.97
71043;BME280;58696;52.134;5.500;2023-03-03T05:30:09;102746.94;;;0.73;95.21
71043;BME280;58696;52.134;5.500;2023-03-03T05:32:41;102744.41;;;0.73;95.35
71043;BME280;58696;52.134;5.500;2023-03-03T05:35:10;102746.81;;;0.76;95.40
71043;BME280;58696;52.134;5.500;2023-03-03T05:37:38;102745.94;;;0.77;95.42
71043;BME280;58696;52.134;5.500;2023-03-03T05:40:13;102752.63;;;0.78;95.50
71043;BME280;58696;52.134;5.500;2023-03-03T05:42:40;102746.75;;;0.78;95.55
71043;BME280;58696;52.134;5.500;2023-03-03T05:45:09;102746.75;;;0.78;95.59
71043;BME280;58696;52.134;5.500;2023-03-03T05:47:36;102748.25;;;0.82;95.50
71043;BME280;58696;52.134;5.500;2023-03-03T05:50:03;102743.94;;;0.84;95.74
71043;BME280;58696;52.134;5.500;2023-03-03T05:52:30;102750.53;;;0.87;95.65
71043;BME280;58696;52.134;5.500;2023-03-03T05:54:57;102746.25;;;0.89;95.75
71043;BME280;58696;52.134;5.500;2023-03-03T05:57:24;102753.69;;;0.92;95.76
71043;BME280;58696;52.134;5.500;2023-03-03T05:59:53;102758.00;;;0.90;95.70
71043;BME280;58696;52.134;5.500;2023-03-03T06:02:22;102759.63;;;0.91;95.88
71043;BME280;58696;52.134;5.500;2023-03-03T06:04:51;102758.91;;;0.89;95.92
71043;BME280;58696;52.134;5.500;2023-03-03T06:07:20;102757.09;;;0.91;95.96
71043;BME280;58696;52.134;5.500;2023-03-03T06:09:49;102760.44;;;0.91;95.98
71043;BME280;58696;52.134;5.500;2023-03-03T06:12:15;102760.31;;;0.94;96.01
71043;BME280;58696;52.134;5.500;2023-03-03T06:14:42;102760.94;;;0.99;96.27
71043;BME280;58696;52.134;5.500;2023-03-03T06:17:11;102757.41;;;1.02;96.12
71043;BME280;58696;52.134;5.500;2023-03-03T06:19:40;102769.44;;;0.98;96.11
71043;BME280;58696;52.134;5.500;2023-03-03T06:22:07;102766.81;;;1.00;96.03
71043;BME280;58696;52.134;5.500;2023-03-03T06:24:34;102767.75;;;0.97;96.23
71043;BME280;58696;52.134;5.500;2023-03-03T06:27:03;102768.44;;;1.01;96.25
71043;BME280;58696;52.134;5.500;2023-03-03T06:29:35;102766.72;;;1.01;96.26
71043;BME280;58696;52.134;5.500;2023-03-03T06:32:02;102774.41;;;1.00;96.32
71043;BME280;58696;52.134;5.500;2023-03-03T06:34:29;102771.88;;;1.00;96.31
71043;BME280;58696;52.134;5.500;2023-03-03T06:36:55;102776.03;;;1.01;96.47
71043;BME280;58696;52.134;5.500;2023-03-03T06:39:22;102773.38;;;1.04;96.55
71043;BME280;58696;52.134;5.500;2023-03-03T06:41:49;102777.38;;;1.08;96.60
71043;BME280;58696;52.134;5.500;2023-03-03T06:44:16;102772.41;;;1.07;96.66
71043;BME280;58696;52.134;5.500;2023-03-03T06:46:42;102784.09;;;1.09;96.68
71043;BME280;58696;52.134;5.500;2023-03-03T06:49:11;102784.84;;;1.11;96.78
71043;BME280;58696;52.134;5.500;2023-03-03T06:51:42;102788.94;;;1.14;96.76
71043;BME280;58696;52.134;5.500;2023-03-03T06:54:20;102792.38;;;1.13;96.79
71043;BME280;58696;52.134;5.500;2023-03-03T06:56:59;102799.00;;;1.15;96.87
71043;BME280;58696;52.134;5.500;2023-03-03T06:59:26;102795.66;;;1.15;96.96
71043;BME280;58696;52.134;5.500;2023-03-03T07:01:54;102803.19;;;1.16;97.08
71043;BME280;58696;52.134;5.500;2023-03-03T07:04:28;102798.94;;;1.17;96.93
71043;BME280;58696;52.134;5.500;2023-03-03T07:06:57;102803.09;;;1.18;97.09
71043;BME280;58696;52.134;5.500;2023-03-03T07:09:28;102805.41;;;1.22;97.10
71043;BME280;58696;52.134;5.500;2023-03-03T07:11:56;102822.25;;;1.23;97.15
71043;BME280;58696;52.134;5.500;2023-03-03T07:14:29;102818.97;;;1.21;97.19
71043;BME280;58696;52.134;5.500;2023-03-03T07:16:59;102816.44;;;1.21;97.24
71043;BME280;58696;52.134;5.500;2023-03-03T07:19:32;102819.63;;;1.25;97.25
71043;BME280;58696;52.134;5.500;2023-03-03T07:22:24;102826.41;;;1.24;97.37
71043;BME280;58696;52.134;5.500;2023-03-03T07:24:56;102822.72;;;1.31;97.30
71043;BME280;58696;52.134;5.500;2023-03-03T07:27:28;102826.59;;;1.39;97.22
71043;BME280;58696;52.134;5.500;2023-03-03T07:32:44;102819.59;;;1.44;97.18
71043;BME280;58696;52.134;5.500;2023-03-03T07:38:23;102826.09;;;1.49;97.29
71043;BME280;58696;52.134;5.500;2023-03-03T07:40:57;102835.41;;;1.49;97.18
71043;BME280;58696;52.134;5.500;2023-03-03T07:43:36;102835.19;;;1.53;97.32
71043;BME280;58696;52.134;5.500;2023-03-03T07:46:44;102831.84;;;1.53;97.12
71043;BME280;58696;52.134;5.500;2023-03-03T07:51:39;102846.78;;;1.57;97.19
71043;BME280;58696;52.134;5.500;2023-03-03T07:54:29;102832.88;;;1.66;97.09
71043;BME280;58696;52.134;5.500;2023-03-03T08:02:32;102851.13;;;1.73;97.03
71043;BME280;58696;52.134;5.500;2023-03-03T08:05:11;102847.47;;;1.78;96.94
71043;BME280;58696;52.134;5.500;2023-03-03T08:07:49;102858.88;;;1.87;96.86
71043;BME280;58696;52.134;5.500;2023-03-03T08:13:16;102863.25;;;2.01;96.80
71043;BME280;58696;52.134;5.500;2023-03-03T08:15:47;102873.19;;;2.05;96.48
71043;BME280;58696;52.134;5.500;2023-03-03T08:18:21;102873.94;;;2.07;96.41
71043;BME280;58696;52.134;5.500;2023-03-03T08:20:50;102871.31;;;2.09;96.48
71043;BME280;58696;52.134;5.500;2023-03-03T08:23:18;102874.53;;;2.13;96.27
71043;BME280;58696;52.134;5.500;2023-03-03T08:25:48;102880.25;;;2.16;96.25
71043;BME280;58696;52.134;5.500;2023-03-03T08:28:15;102874.28;;;2.17;96.07
71043;BME280;58696;52.134;5.500;2023-03-03T08:30:53;102874.81;;;2.24;95.94
71043;BME280;58696;52.134;5.500;2023-03-03T08:33:40;102878.44;;;2.35;96.00
71043;BME280;58696;52.134;5.500;2023-03-03T08:36:07;102876.69;;;2.53;95.76
71043;BME280;58696;52.134;5.500;2023-03-03T08:38:35;102887.66;;;2.54;95.13
71043;BME280;58696;52.134;5.500;2023-03-03T08:41:02;102883.56;;;2.51;95.13
71043;BME280;58696;52.134;5.500;2023-03-03T08:43:32;102885.31;;;2.67;95.13
71043;BME280;58696;52.134;5.500;2023-03-03T08:46:04;102881.13;;;2.81;94.72
71043;BME280;58696;52.134;5.500;2023-03-03T08:48:35;102886.78;;;2.86;94.48
71043;BME280;58696;52.134;5.500;2023-03-03T08:51:03;102878.69;;;2.96;94.31
71043;BME280;58696;52.134;5.500;2023-03-03T08:53:30;102876.31;;;3.08;94.02
71043;BME280;58696;52.134;5.500;2023-03-03T08:55:59;102872.69;;;3.28;93.73
71043;BME280;58696;52.134;5.500;2023-03-03T08:58:25;102871.78;;;3.29;93.03
71043;BME280;58696;52.134;5.500;2023-03-03T09:01:01;102876.97;;;3.28;92.58
71043;BME280;58696;52.134;5.500;2023-03-03T09:03:27;102884.59;;;3.28;92.44
71043;BME280;58696;52.134;5.500;2023-03-03T09:05:57;102880.97;;;3.32;92.21
71043;BME280;58696;52.134;5.500;2023-03-03T09:08:24;102881.03;;;3.30;91.86
71043;BME280;58696;52.134;5.500;2023-03-03T09:10:51;102883.44;;;3.33;91.83
71043;BME280;58696;52.134;5.500;2023-03-03T09:13:18;102887.16;;;3.42;91.49
71043;BME280;58696;52.134;5.500;2023-03-03T09:15:48;102887.16;;;3.42;90.76
71043;BME280;58696;52.134;5.500;2023-03-03T09:18:19;102888.03;;;3.42;90.95
71043;BME280;58696;52.134;5.500;2023-03-03T09:20:51;102891.28;;;3.45;90.90
71043;BME280;58696;52.134;5.500;2023-03-03T09:25:52;102884.31;;;3.48;90.79
71043;BME280;58696;52.134;5.500;2023-03-03T09:30:52;102886.84;;;3.48;90.55
71043;BME280;58696;52.134;5.500;2023-03-03T09:33:23;102878.44;;;3.62;90.37
71043;BME280;58696;52.134;5.500;2023-03-03T09:35:57;102886.28;;;3.73;90.30
71043;BME280;58696;52.134;5.500;2023-03-03T09:38:32;102881.72;;;3.64;89.43
71043;BME280;58696;52.134;5.500;2023-03-03T09:43:40;102891.16;;;3.62;90.02
71043;BME280;58696;52.134;5.500;2023-03-03T09:49:01;102890.66;;;3.71;89.84
71043;BME280;58696;52.134;5.500;2023-03-03T10:03:55;102897.56;;;4.28;88.51
71043;BME280;58696;52.134;5.500;2023-03-03T10:20:15;102893.75;;;5.59;83.63
71043;BME280;58696;52.134;5.500;2023-03-03T10:23:00;102895.84;;;5.39;82.88
71043;BME280;58696;52.134;5.500;2023-03-03T10:25:47;102892.34;;;5.27;82.36
71043;BME280;58696;52.134;5.500;2023-03-03T10:36:56;102894.75;;;5.83;80.29
71043;BME280;58696;52.134;5.500;2023-03-03T10:55:47;102890.28;;;8.05;73.39
71043;BME280;58696;52.134;5.500;2023-03-03T11:15:35;102881.88;;;6.98;70.89
71043;BME280;58696;52.134;5.500;2023-03-03T11:20:37;102875.66;;;6.89;72.47
71043;BME280;58696;52.134;5.500;2023-03-03T11:23:16;102872.50;;;7.33;71.23
71043;BME280;58696;52.134;5.500;2023-03-03T11:36:54;102862.66;;;8.87;66.41
71043;BME280;58696;52.134;5.500;2023-03-03T11:39:24;102858.75;;;9.04;64.45
71043;BME280;58696;52.134;5.500;2023-03-03T11:47:24;102858.41;;;8.43;64.24
71043;BME280;58696;52.134;5.500;2023-03-03T11:50:19;102860.25;;;8.41;62.92
71043;BME280;58696;52.134;5.500;2023-03-03T11:55:41;102849.97;;;9.39;62.75
71043;BME280;58696;52.134;5.500;2023-03-03T12:04:00;102850.53;;;9.42;59.43
71043;BME280;58696;52.134;5.500;2023-03-03T12:14:54;102839.28;;;8.13;60.97
71043;BME280;58696;52.134;5.500;2023-03-03T12:17:37;102833.22;;;8.26;61.76
71043;BME280;58696;52.134;5.500;2023-03-03T12:26:07;102837.09;;;8.86;61.24
71043;BME280;58696;52.134;5.500;2023-03-03T12:28:41;102832.50;;;8.68;60.03
71043;BME280;58696;52.134;5.500;2023-03-03T12:31:32;102835.81;;;8.37;62.39
71043;BME280;58696;52.134;5.500;2023-03-03T12:39:34;102820.41;;;7.70;63.98
71043;BME280;58696;52.134;5.500;2023-03-03T12:47:32;102818.09;;;8.23;62.28
71043;BME280;58696;52.134;5.500;2023-03-03T12:57:52;102813.34;;;8.07;61.55
71043;BME280;58696;52.134;5.500;2023-03-03T13:08:42;102805.25;;;9.00;56.93
71043;BME280;58696;52.134;5.500;2023-03-03T13:11:18;102806.47;;;8.84;58.07
71043;BME280;58696;52.134;5.500;2023-03-03T13:16:40;102810.94;;;8.71;56.93
71043;BME280;58696;52.134;5.500;2023-03-03T13:19:15;102811.09;;;8.47;57.61
71043;BME280;58696;52.134;5.500;2023-03-03T13:25:05;102806.81;;;7.80;59.50
71043;BME280;58696;52.134;5.500;2023-03-03T13:27:40;102813.19;;;7.86;60.97
71043;BME280;58696;52.134;5.500;2023-03-03T13:30:16;102808.41;;;8.26;60.34
71043;BME280;58696;52.134;5.500;2023-03-03T13:33:21;102797.59;;;8.45;58.70
71043;BME280;58696;52.134;5.500;2023-03-03T13:35:59;102796.38;;;8.72;58.92
71043;BME280;58696;52.134;5.500;2023-03-03T13:38:34;102796.91;;;8.54;58.62
71043;BME280;58696;52.134;5.500;2023-03-03T13:43:48;102810.06;;;8.16;60.37
71043;BME280;58696;52.134;5.500;2023-03-03T13:49:56;102803.97;;;7.61;63.39
71043;BME280;58696;52.134;5.500;2023-03-03T13:52:33;102803.38;;;7.46;64.15
71043;BME280;58696;52.134;5.500;2023-03-03T13:58:24;102808.72;;;7.43;65.27
71043;BME280;58696;52.134;5.500;2023-03-03T14:03:34;102801.56;;;7.24;66.27
71043;BME280;58696;52.134;5.500;2023-03-03T14:06:08;102806.91;;;7.21;66.33
71043;BME280;58696;52.134;5.500;2023-03-03T14:19:47;102801.31;;;7.16;67.75
71043;BME280;58696;52.134;5.500;2023-03-03T14:22:36;102799.19;;;7.10;67.66
71043;BME280;58696;52.134;5.500;2023-03-03T14:25:12;102800.50;;;7.16;66.37
71043;BME280;58696;52.134;5.500;2023-03-03T14:30:38;102790.19;;;7.28;65.88
71043;BME280;58696;52.134;5.500;2023-03-03T14:38:08;102783.75;;;7.23;64.02
71043;BME280;58696;52.134;5.500;2023-03-03T14:40:41;102782.06;;;7.23;63.97
71043;BME280;58696;52.134;5.500;2023-03-03T14:43:23;102780.75;;;7.18;63.10
71043;BME280;58696;52.134;5.500;2023-03-03T14:45:53;102781.78;;;7.15;63.83
71043;BME280;58696;52.134;5.500;2023-03-03T14:48:20;102775.63;;;7.18;63.50
71043;BME280;58696;52.134;5.500;2023-03-03T14:50:51;102783.03;;;7.09;62.82
71043;BME280;58696;52.134;5.500;2023-03-03T14:53:33;102776.50;;;7.05;63.36
71043;BME280;58696;52.134;5.500;2023-03-03T14:56:28;102774.31;;;7.12;62.95
71043;BME280;58696;52.134;5.500;2023-03-03T15:01:46;102770.41;;;7.19;62.43
71043;BME280;58696;52.134;5.500;2023-03-03T15:06:48;102761.94;;;7.19;62.15
71043;BME280;58696;52.134;5.500;2023-03-03T15:09:37;102762.69;;;7.08;62.82
71043;BME280;58696;52.134;5.500;2023-03-03T15:22:49;102763.28;;;7.11;63.08
71043;BME280;58696;52.134;5.500;2023-03-03T15:30:50;102752.13;;;6.77;64.71
71043;BME280;58696;52.134;5.500;2023-03-03T15:39:02;102758.72;;;6.69;65.35
71043;BME280;58696;52.134;5.500;2023-03-03T15:41:43;102748.69;;;6.66;65.49
71043;BME280;58696;52.134;5.500;2023-03-03T16:01:24;102735.50;;;6.48;65.59
71043;BME280;58696;52.134;5.500;2023-03-03T16:03:58;102742.88;;;6.40;65.29
71043;BME280;58696;52.134;5.500;2023-03-03T16:09:23;102743.19;;;6.35;65.28
71043;BME280;58696;52.134;5.500;2023-03-03T16:14:43;102746.06;;;6.30;64.77
71043;BME280;58696;52.134;5.500;2023-03-03T16:22:48;102762.66;;;6.12;65.83
71043;BME280;58696;52.134;5.500;2023-03-03T16:25:38;102757.56;;;6.12;66.10
71043;BME280;58696;52.134;5.500;2023-03-03T16:30:53;102752.38;;;6.01;64.74
71043;BME280;58696;52.134;5.500;2023-03-03T16:33:29;102753.41;;;5.98;64.88
71043;BME280;58696;52.134;5.500;2023-03-03T16:36:08;102756.66;;;6.00;65.50
71043;BME280;58696;52.134;5.500;2023-03-03T16:38:39;102752.25;;;6.02;65.28
71043;BME280;58696;52.134;5.500;2023-03-03T16:41:13;102748.38;;;5.97;65.15
71043;BME280;58696;52.134;5.500;2023-03-03T16:44:00;102748.31;;;5.98;65.42
71043;BME280;58696;52.134;5.500;2023-03-03T16:46:44;102755.34;;;5.95;65.57
71043;BME280;58696;52.134;5.500;2023-03-03T16:49:32;102750.00;;;5.98;66.04
71043;BME280;58696;52.134;5.500;2023-03-03T16:52:18;102749.19;;;5.97;66.21
71043;BME280;58696;52.134;5.500;2023-03-03T16:54:51;102756.78;;;5.99;66.09
71043;BME280;58696;52.134;5.500;2023-03-03T17:10:44;102758.38;;;5.87;67.37
71043;BME280;58696;52.134;5.500;2023-03-03T17:16:49;102760.22;;;5.85;67.31
71043;BME280;58696;52.134;5.500;2023-03-03T17:19:37;102761.13;;;5.84;67.55
71043;BME280;58696;52.134;5.500;2023-03-03T17:22:36;102762.97;;;5.82;67.90
71043;BME280;58696;52.134;5.500;2023-03-03T17:28:07;102770.63;;;5.82;68.19
71043;BME280;58696;52.134;5.500;2023-03-03T17:42:00;102778.38;;;5.80;68.61
71043;BME280;58696;52.134;5.500;2023-03-03T17:47:07;102785.31;;;5.78;68.99
71043;BME280;58696;52.134;5.500;2023-03-03T17:49:45;102787.19;;;5.76;69.19
71043;BME280;58696;52.134;5.500;2023-03-03T17:57:39;102791.84;;;5.70;69.13
71043;BME280;58696;52.134;5.500;2023-03-03T18:08:40;102787.78;;;5.67;69.32
71043;BME280;58696;52.134;5.500;2023-03-03T18:26:53;102811.13;;;5.61;71.06
71043;BME280;58696;52.134;5.500;2023-03-03T18:29:26;102800.19;;;5.59;70.68
71043;BME280;58696;52.134;5.500;2023-03-03T18:36:57;102814.00;;;5.57;70.98
71043;BME280;58696;52.134;5.500;2023-03-03T18:39:47;102819.19;;;5.55;71.13
71043;BME280;58696;52.134;5.500;2023-03-03T18:44:46;102816.00;;;5.51;71.36
71043;BME280;58696;52.134;5.500;2023-03-03T18:47:17;102822.03;;;5.50;71.62
71043;BME280;58696;52.134;5.500;2023-03-03T18:49:49;102822.75;;;5.52;71.75
71043;BME280;58696;52.134;5.500;2023-03-03T18:52:23;102822.84;;;5.51;71.49
71043;BME280;58696;52.134;5.500;2023-03-03T18:57:36;102823.78;;;5.50;71.81
71043;BME280;58696;52.134;5.500;2023-03-03T19:00:29;102832.25;;;5.50;71.95
71043;BME280;58696;52.134;5.500;2023-03-03T19:02:57;102824.78;;;5.47;72.00
71043;BME280;58696;52.134;5.500;2023-03-03T19:05:48;102826.50;;;5.47;71.78
71043;BME280;58696;52.134;5.500;2023-03-03T19:08:28;102826.50;;;5.47;71.57
71043;BME280;58696;52.134;5.500;2023-03-03T19:16:04;102823.16;;;5.46;72.06